Time;durP1;ratioP1;P1;durP2;ratioP2;P2;SDS_P1;SDS_P2;PMS_P1;PMS_P2;Temp;Humidity;BMP_temperature;BMP_pressure;BME280_temperature;BME280_humidity;BME280_pressure;Samples;Min_cycle;Max_cycle;Signal;HPM_P1;HPM_P2
2022/01/13 00:01:30;;;;;;;50.70;24.27;;;3.20;99.90;;;;;;5060462;28;20632;-78
2022/01/13 00:03:58;;;;;;;49.13;23.53;;;3.20;99.90;;;;;;5061919;28;20264;-79
2022/01/13 00:06:23;;;;;;;56.10;26.40;;;3.20;99.90;;;;;;5061993;28;20250;-78
2022/01/13 00:08:49;;;;;;;58.40;26.53;;;3.20;99.90;;;;;;5058693;28;20726;-77
2022/01/13 00:11:14;;;;;;;53.27;27.03;;;3.20;99.90;;;;;;5058913;28;20211;-77
2022/01/13 00:14:27;;;;;;;54.70;26.03;;;3.20;99.90;;;;;;5058423;28;20261;-77
2022/01/13 00:16:41;;;;;;;53.87;24.83;;;3.20;99.90;;;;;;5047350;28;20241;-78
2022/01/13 00:21:47;;;;;;;61.27;26.10;;;3.20;99.90;;;;;;5058319;28;20215;-78
2022/01/13 00:24:13;;;;;;;61.67;25.93;;;3.20;99.90;;;;;;5024980;28;20212;-77
2022/01/13 00:26:39;;;;;;;58.23;26.93;;;3.20;99.90;;;;;;5038316;28;20176;-77
2022/01/13 00:29:06;;;;;;;59.40;26.93;;;3.20;99.90;;;;;;5038614;28;20164;-77
2022/01/13 00:31:35;;;;;;;60.00;27.53;;;3.10;99.90;;;;;;5020626;28;20184;-78
2022/01/13 00:34:04;;;;;;;55.90;27.67;;;3.20;99.90;;;;;;5036597;28;20210;-78
2022/01/13 00:36:33;;;;;;;62.47;28.53;;;3.20;99.90;;;;;;5020070;28;20658;-78
2022/01/13 00:38:59;;;;;;;62.07;28.80;;;3.20;99.90;;;;;;5020478;28;20701;-78
2022/01/13 00:41:28;;;;;;;61.20;29.60;;;3.20;99.90;;;;;;5020285;28;20188;-78
2022/01/13 00:43:55;;;;;;;56.60;27.33;;;3.20;99.90;;;;;;5037721;28;20571;-78
2022/01/13 00:46:26;;;;;;;68.53;28.33;;;3.20;99.90;;;;;;5037826;28;20184;-77
2022/01/13 00:48:53;;;;;;;70.03;29.93;;;3.10;99.90;;;;;;5037697;28;20315;-78
2022/01/13 00:51:21;;;;;;;57.57;27.47;;;3.10;99.90;;;;;;5037507;28;20180;-78
2022/01/13 00:53:47;;;;;;;68.23;29.97;;;3.10;99.90;;;;;;5038010;28;20198;-77
2022/01/13 00:56:12;;;;;;;60.33;27.80;;;3.20;99.90;;;;;;5020126;28;20267;-78
2022/01/13 00:58:38;;;;;;;65.23;28.60;;;3.10;99.90;;;;;;5037711;28;20681;-78
2022/01/13 01:01:06;;;;;;;59.60;28.63;;;3.10;99.90;;;;;;5019859;28;20184;-77
2022/01/13 01:03:32;;;;;;;62.70;28.97;;;3.10;99.90;;;;;;5019369;28;20204;-77
2022/01/13 01:05:59;;;;;;;71.80;30.20;;;3.10;99.90;;;;;;5037361;28;20230;-78
2022/01/13 01:08:25;;;;;;;58.37;29.00;;;3.10;99.90;;;;;;5037755;28;20560;-78
2022/01/13 01:10:53;;;;;;;68.53;29.00;;;3.20;99.90;;;;;;5019892;28;20180;-77
2022/01/13 01:13:22;;;;;;;64.63;28.30;;;3.20;99.90;;;;;;5019162;28;20238;-78
2022/01/13 01:15:53;;;;;;;71.20;30.17;;;3.10;99.90;;;;;;5018910;28;20276;-77
2022/01/13 01:21:04;;;;;;;66.20;29.30;;;3.10;99.90;;;;;;5037618;28;20169;-78
2022/01/13 01:23:35;;;;;;;72.57;30.07;;;3.10;99.90;;;;;;5019187;28;20231;-78
2022/01/13 01:26:50;;;;;;;67.17;29.53;;;3.10;99.90;;;;;;5036580;28;20631;-77
2022/01/13 01:28:54;;;;;;;71.70;30.37;;;3.10;99.90;;;;;;5027423;28;20268;-78
2022/01/13 01:31:26;;;;;;;69.23;29.73;;;3.10;99.90;;;;;;5037314;28;20161;-78
2022/01/13 01:34:10;;;;;;;61.40;28.83;;;3.00;99.90;;;;;;5037804;28;20219;-78
2022/01/13 01:36:35;;;;;;;65.20;28.70;;;3.00;99.90;;;;;;5019376;28;20184;-78
2022/01/13 01:39:02;;;;;;;62.13;30.07;;;3.00;99.90;;;;;;5038070;28;20173;-78
2022/01/13 01:41:28;;;;;;;74.77;30.93;;;3.00;99.90;;;;;;5038615;28;20200;-78
2022/01/13 01:44:00;;;;;;;67.27;29.93;;;3.00;99.90;;;;;;5020431;28;20237;-78
2022/01/13 01:46:26;;;;;;;74.50;30.90;;;3.00;99.90;;;;;;5038590;28;20176;-78
2022/01/13 01:48:52;;;;;;;71.00;31.20;;;3.00;99.90;;;;;;5020788;28;20207;-78
2022/01/13 01:51:17;;;;;;;72.87;31.03;;;3.00;99.90;;;;;;5038829;28;20172;-78
2022/01/13 01:53:43;;;;;;;67.03;30.70;;;3.00;99.90;;;;;;5038673;28;20271;-78
2022/01/13 01:56:09;;;;;;;71.20;28.97;;;3.00;99.90;;;;;;5037495;28;20184;-78
2022/01/13 01:58:36;;;;;;;68.93;31.53;;;3.00;99.90;;;;;;5039277;28;20654;-78
2022/01/13 02:01:02;;;;;;;69.77;30.93;;;3.00;99.90;;;;;;5038918;28;20172;-78
2022/01/13 02:03:29;;;;;;;74.07;31.77;;;3.00;99.90;;;;;;5038683;28;20208;-78
2022/01/13 02:05:56;;;;;;;73.17;31.77;;;3.00;99.90;;;;;;5038186;28;20643;-78
2022/01/13 02:08:22;;;;;;;68.37;29.37;;;3.00;99.90;;;;;;5038629;28;20184;-78
2022/01/13 02:10:48;;;;;;;73.37;30.73;;;3.00;99.90;;;;;;5021186;28;20184;-77
2022/01/13 02:13:19;;;;;;;78.30;31.93;;;3.00;99.90;;;;;;5039442;28;20196;-79
2022/01/13 02:16:06;;;;;;;75.60;31.60;;;3.10;99.90;;;;;;5021804;28;20626;-78
2022/01/13 02:18:33;;;;;;;75.93;31.50;;;3.10;99.90;;;;;;5039940;28;20170;-78
2022/01/13 02:21:00;;;;;;;72.23;31.20;;;3.10;99.90;;;;;;5040023;28;20212;-78
2022/01/13 02:23:31;;;;;;;69.80;30.10;;;3.00;99.90;;;;;;5039603;28;20200;-78
2022/01/13 02:25:56;;;;;;;76.07;31.57;;;3.00;99.90;;;;;;5040158;28;20191;-78
2022/01/13 02:28:22;;;;;;;67.60;29.83;;;3.00;99.90;;;;;;5041275;28;20180;-78
2022/01/13 02:30:47;;;;;;;69.17;30.93;;;3.00;99.90;;;;;;5023410;28;20733;-78
2022/01/13 02:33:13;;;;;;;74.07;31.70;;;3.00;99.90;;;;;;5042112;28;20232;-78
2022/01/13 02:35:40;;;;;;;70.57;30.03;;;3.00;99.90;;;;;;5042533;28;20616;-78
2022/01/13 02:38:09;;;;;;;70.87;31.27;;;3.00;99.90;;;;;;5039808;28;20235;-77
2022/01/13 02:40:35;;;;;;;69.70;31.07;;;3.00;99.90;;;;;;5017148;28;20552;-78
2022/01/13 02:43:00;;;;;;;70.43;31.67;;;3.00;99.90;;;;;;4999507;28;20209;-78
2022/01/13 02:45:32;;;;;;;76.93;32.77;;;3.00;99.90;;;;;;4999355;28;20216;-78
2022/01/13 02:48:12;;;;;;;64.93;31.57;;;3.00;99.90;;;;;;4999180;28;20616;-78
2022/01/13 02:50:40;;;;;;;72.50;32.37;;;3.00;99.90;;;;;;5015766;28;20204;-78
2022/01/13 02:53:07;;;;;;;72.40;32.00;;;3.00;99.90;;;;;;5015582;28;20201;-78
2022/01/13 02:55:33;;;;;;;76.63;33.13;;;3.00;99.90;;;;;;5017549;28;20187;-78
2022/01/13 02:57:59;;;;;;;71.63;32.33;;;2.90;99.90;;;;;;5017607;28;20181;-78
2022/01/13 03:00:25;;;;;;;72.37;32.80;;;2.90;99.90;;;;;;4999395;28;20193;-78
2022/01/13 03:02:51;;;;;;;73.83;35.83;;;3.00;99.90;;;;;;5016486;28;20192;-78
2022/01/13 03:05:17;;;;;;;76.27;33.93;;;3.00;99.90;;;;;;5016268;28;20200;-78
2022/01/13 03:07:43;;;;;;;79.53;34.90;;;2.90;99.90;;;;;;5016797;28;20607;-77
2022/01/13 03:10:10;;;;;;;77.70;35.97;;;2.90;99.90;;;;;;5033797;28;20194;-78
2022/01/13 03:12:39;;;;;;;74.60;34.37;;;2.90;99.90;;;;;;5017893;28;20199;-78
2022/01/13 03:15:05;;;;;;;69.43;33.40;;;2.90;99.90;;;;;;5036146;28;20258;-77
2022/01/13 03:17:31;;;;;;;71.27;32.43;;;2.90;99.90;;;;;;5018231;28;20606;-78
2022/01/13 03:19:56;;;;;;;66.07;31.70;;;2.90;99.90;;;;;;5035549;28;20233;-78
2022/01/13 03:22:22;;;;;;;70.90;33.97;;;2.90;99.90;;;;;;5035135;28;20257;-78
2022/01/13 03:24:48;;;;;;;68.70;32.83;;;2.90;99.90;;;;;;5036332;28;20624;-77
2022/01/13 03:27:19;;;;;;;69.63;34.03;;;2.90;99.90;;;;;;5036746;28;20176;-78
2022/01/13 03:29:46;;;;;;;70.33;34.07;;;2.80;99.90;;;;;;5035451;28;20619;-78
2022/01/13 03:32:12;;;;;;;71.80;33.73;;;2.80;99.90;;;;;;5035225;28;20247;-78
2022/01/13 03:34:38;;;;;;;75.87;35.77;;;2.80;99.90;;;;;;5035747;28;20259;-78
2022/01/13 03:37:04;;;;;;;73.40;35.57;;;2.80;99.90;;;;;;5036640;28;20177;-78
2022/01/13 03:39:30;;;;;;;71.10;34.80;;;2.80;99.90;;;;;;5034775;28;20709;-78
2022/01/13 03:41:56;;;;;;;82.93;36.70;;;2.80;99.90;;;;;;5035741;28;20199;-77
2022/01/13 03:44:27;;;;;;;75.70;35.10;;;2.80;99.90;;;;;;5034761;28;20211;-78
2022/01/13 03:46:55;;;;;;;72.23;33.93;;;2.70;99.90;;;;;;5017173;28;20172;-78
2022/01/13 03:49:21;;;;;;;78.90;37.10;;;2.70;99.90;;;;;;5017321;28;20188;-78
2022/01/13 03:51:57;;;;;;;68.77;35.27;;;2.70;99.90;;;;;;5035694;28;20181;-77
2022/01/13 03:54:31;;;;;;;70.47;35.60;;;2.70;99.90;;;;;;5035440;28;20520;-78
2022/01/13 03:57:19;;;;;;;70.70;35.27;;;2.70;99.90;;;;;;5035557;28;20190;-78
2022/01/13 04:00:22;;;;;;;72.30;34.63;;;2.70;99.90;;;;;;5017807;28;20582;-77
2022/01/13 04:02:48;;;;;;;70.20;35.27;;;2.70;99.90;;;;;;4962165;28;20210;-78
2022/01/13 04:05:13;;;;;;;69.03;33.87;;;2.70;99.90;;;;;;5016263;28;20201;-78
2022/01/13 04:07:39;;;;;;;74.17;35.53;;;2.70;99.90;;;;;;5016329;28;20529;-78
2022/01/13 04:10:44;;;;;;;72.17;34.43;;;2.70;99.90;;;;;;5015895;28;20308;-78
2022/01/13 04:13:22;;;;;;;72.20;32.80;;;2.70;99.90;;;;;;5000566;28;20216;-78
2022/01/13 04:15:48;;;;;;;71.03;33.37;;;2.70;99.90;;;;;;5035178;28;20599;-78
2022/01/13 04:18:14;;;;;;;71.67;34.17;;;2.70;99.90;;;;;;5036583;28;20223;-78
2022/01/13 04:20:39;;;;;;;67.57;33.47;;;2.70;99.90;;;;;;5036401;28;20196;-78
2022/01/13 04:23:05;;;;;;;71.50;34.37;;;2.70;99.90;;;;;;5017535;28;20216;-78
2022/01/13 04:25:33;;;;;;;67.07;34.53;;;2.70;99.90;;;;;;5035683;28;20212;-78
2022/01/13 04:28:02;;;;;;;76.87;35.40;;;2.70;99.90;;;;;;5035213;28;20234;-78
2022/01/13 04:30:49;;;;;;;69.57;34.93;;;2.70;99.90;;;;;;5017969;28;20192;-78
2022/01/13 04:33:15;;;;;;;71.17;35.10;;;2.70;99.90;;;;;;5035189;28;20236;-78
2022/01/13 04:35:41;;;;;;;70.40;35.47;;;2.70;99.90;;;;;;5035343;28;20234;-78
2022/01/13 04:38:07;;;;;;;67.70;33.23;;;2.60;99.90;;;;;;5035476;28;20191;-78
2022/01/13 04:40:33;;;;;;;63.10;32.83;;;2.60;99.90;;;;;;5035494;28;20263;-78
2022/01/13 04:42:58;;;;;;;68.50;32.97;;;2.60;99.90;;;;;;5017201;28;20250;-78
2022/01/13 04:45:25;;;;;;;71.97;33.43;;;2.60;99.90;;;;;;5035509;28;20686;-78
2022/01/13 04:47:53;;;;;;;65.53;32.43;;;2.60;99.90;;;;;;5034937;28;20181;-78
2022/01/13 04:50:22;;;;;;;68.27;33.13;;;2.60;99.90;;;;;;5037764;28;20184;-78
2022/01/13 04:52:48;;;;;;;64.57;32.27;;;2.60;99.90;;;;;;5020761;28;20253;-78
2022/01/13 04:55:21;;;;;;;63.50;30.83;;;2.50;99.90;;;;;;5039571;28;20267;-78
2022/01/13 04:57:46;;;;;;;71.97;33.50;;;2.50;99.90;;;;;;5021652;28;20556;-78
2022/01/13 05:00:12;;;;;;;68.83;34.53;;;2.50;99.90;;;;;;5021449;28;20188;-78
2022/01/13 05:02:38;;;;;;;65.73;33.33;;;2.50;99.90;;;;;;5038851;28;20212;-78
2022/01/13 05:05:04;;;;;;;67.20;34.13;;;2.50;99.90;;;;;;5039380;28;20213;-78
2022/01/13 05:07:31;;;;;;;70.23;34.30;;;2.50;99.90;;;;;;5039318;28;20248;-78
2022/01/13 05:09:56;;;;;;;64.93;33.97;;;2.50;99.90;;;;;;5021533;28;20544;-78
2022/01/13 05:12:28;;;;;;;67.53;34.23;;;2.50;99.90;;;;;;5038666;28;20196;-78
2022/01/13 05:14:57;;;;;;;73.27;34.70;;;2.50;99.90;;;;;;5039108;28;20187;-78
2022/01/13 05:20:39;;;;;;;65.13;34.27;;;2.40;99.90;;;;;;5008517;28;20215;-78
2022/01/13 05:22:55;;;;;;;74.63;37.10;;;2.40;99.90;;;;;;5038118;28;20219;-78
2022/01/13 05:25:21;;;;;;;69.73;33.63;;;2.40;99.90;;;;;;5039565;28;20208;-79
2022/01/13 05:27:47;;;;;;;81.13;36.37;;;2.40;99.90;;;;;;5040329;28;20183;-78
2022/01/13 05:30:15;;;;;;;71.10;36.30;;;2.40;99.90;;;;;;5040411;28;20204;-78
2022/01/13 05:32:41;;;;;;;79.27;35.93;;;2.40;99.90;;;;;;5039117;28;21523;-78
2022/01/13 05:35:08;;;;;;;74.83;37.83;;;2.40;99.90;;;;;;5023373;28;20176;-78
2022/01/13 05:37:33;;;;;;;82.93;37.90;;;2.40;99.90;;;;;;5045706;28;20172;-78
2022/01/13 05:39:59;;;;;;;82.23;39.30;;;2.40;99.90;;;;;;5031567;28;20192;-78
2022/01/13 05:42:24;;;;;;;74.23;36.47;;;2.40;99.90;;;;;;5045012;28;20208;-78
2022/01/13 05:44:50;;;;;;;73.73;36.13;;;2.40;99.90;;;;;;5019066;28;20240;-78
2022/01/13 05:47:16;;;;;;;76.93;35.87;;;2.30;99.90;;;;;;5037214;28;20182;-78
2022/01/13 05:49:43;;;;;;;76.77;36.80;;;2.40;99.90;;;;;;5018692;28;20209;-78
2022/01/13 05:52:13;;;;;;;76.43;35.93;;;2.30;99.90;;;;;;5036811;28;20259;-78
2022/01/13 05:54:40;;;;;;;86.17;39.43;;;2.30;99.90;;;;;;5036120;28;20654;-78
2022/01/13 05:57:08;;;;;;;86.83;37.90;;;2.30;99.90;;;;;;5037223;28;20665;-78
2022/01/13 05:59:35;;;;;;;81.27;36.07;;;2.30;99.90;;;;;;5037688;28;20204;-78
2022/01/13 06:02:02;;;;;;;88.73;37.23;;;2.30;99.90;;;;;;5027226;22;20240;-80
2022/01/13 06:04:27;;;;;;;77.30;36.73;;;2.30;99.90;;;;;;4998318;28;20273;-82
2022/01/13 06:06:53;;;;;;;86.90;39.03;;;2.30;99.90;;;;;;4981513;28;20212;-78
2022/01/13 06:09:19;;;;;;;84.23;37.33;;;2.30;99.90;;;;;;5000135;28;20202;-78
2022/01/13 06:11:55;;;;;;;80.23;36.63;;;2.20;99.90;;;;;;5000116;28;20232;-78
2022/01/13 06:14:20;;;;;;;81.67;37.13;;;2.30;99.90;;;;;;4982597;28;20329;-78
2022/01/13 06:16:46;;;;;;;76.77;36.27;;;2.20;99.90;;;;;;4981815;28;20206;-78
2022/01/13 06:19:11;;;;;;;79.60;36.13;;;2.20;99.90;;;;;;4999955;28;20241;-79
2022/01/13 06:21:37;;;;;;;87.00;37.17;;;2.30;99.90;;;;;;4998017;28;20217;-78
2022/01/13 06:24:02;;;;;;;87.67;38.13;;;2.20;99.90;;;;;;4997145;28;20201;-78
2022/01/13 06:26:28;;;;;;;81.23;37.03;;;2.20;99.90;;;;;;4979943;28;20192;-78
2022/01/13 06:28:53;;;;;;;76.77;36.17;;;2.20;99.90;;;;;;4996809;28;20676;-80
2022/01/13 06:31:19;;;;;;;76.50;37.37;;;2.20;99.90;;;;;;4998039;28;20197;-78
2022/01/13 06:33:45;;;;;;;81.50;38.37;;;2.20;99.90;;;;;;4998364;28;20177;-78
2022/01/13 06:36:10;;;;;;;73.17;34.93;;;2.20;99.90;;;;;;4998180;28;20170;-78
2022/01/13 06:38:37;;;;;;;76.13;36.97;;;2.20;99.90;;;;;;4998390;28;20189;-78
2022/01/13 06:41:03;;;;;;;76.77;34.80;;;2.20;99.90;;;;;;4998155;28;20190;-78
2022/01/13 06:43:29;;;;;;;76.83;36.57;;;2.20;99.90;;;;;;4981154;28;20193;-78
2022/01/13 06:45:54;;;;;;;80.70;36.67;;;2.20;99.90;;;;;;4998138;28;20224;-77
2022/01/13 06:48:20;;;;;;;84.63;37.73;;;2.10;99.90;;;;;;4980990;28;20245;-77
2022/01/13 06:50:45;;;;;;;80.00;37.30;;;2.10;99.90;;;;;;4998182;28;20212;-77
2022/01/13 06:53:11;;;;;;;78.37;35.40;;;2.10;99.90;;;;;;4980307;28;20192;-78
2022/01/13 06:55:37;;;;;;;83.77;36.60;;;2.10;99.90;;;;;;4997927;28;20221;-77
2022/01/13 06:58:03;;;;;;;89.17;38.83;;;2.10;99.90;;;;;;4979806;28;20648;-77
2022/01/13 07:00:28;;;;;;;97.00;38.73;;;2.10;99.90;;;;;;4980462;28;20194;-78
2022/01/13 07:02:57;;;;;;;91.93;38.57;;;2.10;99.90;;;;;;4997264;28;20200;-78
2022/01/13 07:05:23;;;;;;;85.60;37.80;;;2.10;99.90;;;;;;4980574;28;20205;-78
2022/01/13 07:07:49;;;;;;;95.73;40.77;;;2.10;99.90;;;;;;4979879;28;20186;-77
2022/01/13 07:10:15;;;;;;;95.37;39.50;;;2.10;99.90;;;;;;4997386;28;20544;-77
2022/01/13 07:12:41;;;;;;;93.13;38.80;;;2.10;99.90;;;;;;4980313;28;20193;-77
2022/01/13 07:15:08;;;;;;;81.97;35.40;;;2.00;99.90;;;;;;4997177;28;20193;-77
2022/01/13 07:17:34;;;;;;;90.33;37.90;;;2.00;99.90;;;;;;4997198;28;20185;-77
2022/01/13 07:20:00;;;;;;;103.90;43.63;;;2.00;99.90;;;;;;4980190;28;20193;-77
2022/01/13 07:22:25;;;;;;;93.27;41.93;;;2.00;99.90;;;;;;4979867;28;20288;-77
2022/01/13 07:24:51;;;;;;;109.03;43.30;;;2.00;99.90;;;;;;4997364;28;20247;-77
2022/01/13 07:27:17;;;;;;;100.03;41.43;;;2.00;99.90;;;;;;4997039;28;20192;-78
2022/01/13 07:29:43;;;;;;;104.13;41.20;;;2.10;99.90;;;;;;4997545;28;20232;-77
2022/01/13 07:32:12;;;;;;;110.97;41.50;;;2.10;99.90;;;;;;4980032;28;20260;-77
2022/01/13 07:34:38;;;;;;;97.80;40.77;;;2.10;99.90;;;;;;4997613;28;20636;-77
2022/01/13 07:37:04;;;;;;;103.60;39.50;;;2.00;99.90;;;;;;4997150;28;20288;-78
2022/01/13 07:39:31;;;;;;;94.50;40.30;;;2.10;99.90;;;;;;5000325;28;20676;-78
2022/01/13 07:41:58;;;;;;;109.63;44.47;;;2.10;99.90;;;;;;4999491;28;20284;-78
2022/01/13 07:44:23;;;;;;;99.27;39.10;;;2.10;99.90;;;;;;4978749;28;20213;-78
2022/01/13 07:46:49;;;;;;;107.50;41.53;;;2.10;99.90;;;;;;4979447;28;20186;-78
2022/01/13 07:49:15;;;;;;;95.80;40.17;;;2.10;99.90;;;;;;4981302;28;20660;-80
2022/01/13 07:51:40;;;;;;;97.80;40.73;;;2.10;99.90;;;;;;5000625;28;20520;-79
2022/01/13 07:54:06;;;;;;;104.77;41.40;;;2.10;99.90;;;;;;4983061;28;20284;-79
2022/01/13 07:56:32;;;;;;;105.10;41.27;;;2.10;99.90;;;;;;4982858;28;20189;-79
2022/01/13 07:58:58;;;;;;;108.07;43.73;;;2.10;99.90;;;;;;4999424;28;20269;-78
2022/01/13 08:01:24;;;;;;;97.27;41.30;;;2.10;99.90;;;;;;4982010;28;20228;-79
2022/01/13 08:03:49;;;;;;;107.60;39.87;;;2.10;99.90;;;;;;4983912;28;20181;-79
2022/01/13 08:06:15;;;;;;;107.60;40.73;;;2.10;99.90;;;;;;5000731;28;20169;-79
2022/01/13 08:08:41;;;;;;;95.63;38.67;;;2.10;99.90;;;;;;4983769;28;20178;-78
2022/01/13 08:11:08;;;;;;;94.40;40.50;;;2.10;99.90;;;;;;5004153;28;20257;-79
2022/01/13 08:13:35;;;;;;;91.10;37.40;;;2.10;99.90;;;;;;5011646;28;20178;-79
2022/01/13 08:16:03;;;;;;;82.63;36.50;;;2.00;99.90;;;;;;5011596;28;20325;-78
2022/01/13 08:21:13;;;;;;;82.47;37.33;;;2.10;99.90;;;;;;4997600;28;20212;-79
2022/01/13 08:23:39;;;;;;;82.03;37.37;;;2.00;99.90;;;;;;4979516;28;20185;-79
2022/01/13 08:26:05;;;;;;;89.97;39.10;;;2.00;99.90;;;;;;5000646;28;20201;-79
2022/01/13 08:28:30;;;;;;;92.43;39.60;;;2.00;99.90;;;;;;4983722;28;20189;-79
2022/01/13 08:30:57;;;;;;;99.73;40.97;;;2.00;99.90;;;;;;4984673;28;20202;-79
2022/01/13 08:33:23;;;;;;;103.53;40.57;;;2.00;99.90;;;;;;4983657;28;20579;-79
2022/01/13 08:35:50;;;;;;;110.97;41.50;;;2.00;99.90;;;;;;4983559;28;20190;-78
2022/01/13 08:38:19;;;;;;;92.60;38.87;;;2.00;99.90;;;;;;4983007;28;20571;-79
2022/01/13 08:40:53;;;;;;;121.73;44.40;;;1.90;99.90;;;;;;5000668;28;20297;-79
2022/01/13 08:43:20;;;;;;;101.07;39.97;;;1.90;99.90;;;;;;4983780;28;20204;-79
2022/01/13 08:45:46;;;;;;;121.73;42.30;;;1.90;99.90;;;;;;4982856;28;20217;-78
2022/01/13 08:48:12;;;;;;;107.03;41.07;;;1.90;99.90;;;;;;4983503;28;20178;-79
2022/01/13 08:50:38;;;;;;;106.10;42.03;;;1.90;99.90;;;;;;5000400;28;20198;-79
2022/01/13 08:53:05;;;;;;;101.67;41.23;;;1.90;99.90;;;;;;5000788;28;20192;-79
2022/01/13 08:55:30;;;;;;;128.67;52.10;;;1.90;99.90;;;;;;5000383;28;20276;-79
2022/01/13 08:57:56;;;;;;;142.43;60.13;;;1.90;99.90;;;;;;4983273;28;20287;-79
2022/01/13 09:00:22;;;;;;;175.07;75.23;;;1.80;99.90;;;;;;4999384;28;20283;-79
2022/01/13 09:02:47;;;;;;;191.43;86.00;;;1.80;99.90;;;;;;4999594;28;20201;-79
2022/01/13 09:05:15;;;;;;;208.83;91.77;;;1.90;99.90;;;;;;4999812;28;20294;-79
2022/01/13 09:07:41;;;;;;;190.43;82.83;;;1.90;99.90;;;;;;4982298;28;20184;-79
2022/01/13 09:10:07;;;;;;;174.80;76.33;;;1.80;99.90;;;;;;4982590;28;20244;-79
2022/01/13 09:12:33;;;;;;;142.03;62.10;;;1.90;99.90;;;;;;4983418;28;20289;-79
2022/01/13 09:15:14;;;;;;;156.93;61.83;;;2.00;99.90;;;;;;4984854;28;20247;-79
2022/01/13 09:17:42;;;;;;;124.20;53.60;;;2.00;99.90;;;;;;5000576;28;20161;-79
2022/01/13 09:20:08;;;;;;;141.37;53.23;;;2.00;99.90;;;;;;5000843;28;20652;-79
2022/01/13 09:22:34;;;;;;;115.00;45.80;;;2.10;99.90;;;;;;4982909;28;20216;-79
2022/01/13 09:24:59;;;;;;;108.57;42.23;;;2.10;99.90;;;;;;4982834;28;20209;-79
2022/01/13 09:27:25;;;;;;;97.70;39.60;;;2.20;99.90;;;;;;4982866;28;20182;-79
2022/01/13 09:29:50;;;;;;;110.13;39.83;;;2.20;99.90;;;;;;5000343;28;20174;-79
2022/01/13 09:32:16;;;;;;;99.57;39.40;;;2.20;99.90;;;;;;4999719;28;20256;-77
2022/01/13 09:34:42;;;;;;;108.67;40.97;;;2.20;99.90;;;;;;4982228;28;20215;-77
2022/01/13 09:37:07;;;;;;;107.83;42.17;;;2.20;99.90;;;;;;4980709;28;20228;-77
2022/01/13 09:39:33;;;;;;;110.17;41.10;;;2.20;99.90;;;;;;4999584;28;20189;-78
2022/01/13 09:42:01;;;;;;;117.40;41.43;;;2.20;99.90;;;;;;4999691;28;20212;-77
2022/01/13 09:44:28;;;;;;;106.93;40.40;;;2.20;99.90;;;;;;4999249;28;20197;-78
2022/01/13 09:46:54;;;;;;;105.27;40.07;;;2.30;99.90;;;;;;4981894;28;20189;-77
2022/01/13 09:49:20;;;;;;;95.10;37.37;;;2.30;99.90;;;;;;4999161;28;20182;-78
2022/01/13 09:51:46;;;;;;;97.17;38.27;;;2.30;99.90;;;;;;4981772;28;20292;-77
2022/01/13 09:54:13;;;;;;;97.70;37.43;;;2.30;99.90;;;;;;4998941;28;20192;-77
2022/01/13 09:56:39;;;;;;;86.43;36.10;;;2.30;99.90;;;;;;4999194;28;20178;-77
2022/01/13 09:59:06;;;;;;;82.97;34.07;;;2.30;99.90;;;;;;4998751;28;20319;-77
2022/01/13 10:01:32;;;;;;;86.10;36.43;;;2.30;99.90;;;;;;4980939;28;20221;-77
2022/01/13 10:03:57;;;;;;;84.53;35.57;;;2.30;99.90;;;;;;4998586;28;20220;-77
2022/01/13 10:06:23;;;;;;;90.87;35.60;;;2.30;99.90;;;;;;4998591;28;20652;-77
2022/01/13 10:08:51;;;;;;;87.10;36.70;;;2.30;99.90;;;;;;4998374;28;20170;-78
2022/01/13 10:11:37;;;;;;;90.77;38.33;;;2.40;99.90;;;;;;4998139;28;20193;-77
2022/01/13 10:14:05;;;;;;;89.37;38.07;;;2.40;99.90;;;;;;4998224;28;20191;-78
2022/01/13 10:16:32;;;;;;;92.23;37.43;;;2.40;99.90;;;;;;4997787;28;20185;-78
2022/01/13 10:18:58;;;;;;;91.03;37.53;;;2.40;99.90;;;;;;4980841;28;20186;-78
2022/01/13 10:21:23;;;;;;;86.30;36.33;;;2.40;99.90;;;;;;4997539;28;20703;-77
2022/01/13 10:24:09;;;;;;;91.33;36.10;;;2.50;99.90;;;;;;4997485;28;20173;-78
2022/01/13 10:26:36;;;;;;;99.57;39.47;;;2.50;99.90;;;;;;4980097;28;20270;-78
2022/01/13 10:29:04;;;;;;;98.97;40.03;;;2.50;99.90;;;;;;4980220;28;20185;-78
2022/01/13 10:31:52;;;;;;;102.80;40.40;;;2.50;99.90;;;;;;4997716;28;20198;-78
2022/01/13 10:34:25;;;;;;;95.77;37.80;;;2.50;99.90;;;;;;4997545;28;20189;-77
2022/01/13 10:37:14;;;;;;;98.40;40.07;;;2.50;99.90;;;;;;4997078;28;20189;-78
2022/01/13 10:39:49;;;;;;;88.00;37.73;;;2.60;99.90;;;;;;4980524;28;20193;-78
2022/01/13 10:44:59;;;;;;;103.20;39.53;;;2.60;99.90;;;;;;4997407;28;20197;-78
2022/01/13 10:47:26;;;;;;;90.77;39.07;;;2.60;99.90;;;;;;4979274;28;20221;-78
2022/01/13 10:49:52;;;;;;;100.60;41.03;;;2.60;99.90;;;;;;4997524;28;20180;-78
2022/01/13 10:52:24;;;;;;;103.73;40.50;;;2.60;99.90;;;;;;4979356;28;20269;-78
2022/01/13 10:54:52;;;;;;;96.87;40.10;;;2.60;99.90;;;;;;4979404;28;20182;-78
2022/01/13 10:57:20;;;;;;;104.50;41.27;;;2.70;99.90;;;;;;4997072;28;20264;-78
2022/01/13 10:59:45;;;;;;;98.03;40.13;;;2.70;99.90;;;;;;4979322;28;20537;-78
2022/01/13 11:02:11;;;;;;;100.40;40.40;;;2.70;99.90;;;;;;4995828;28;20283;-79
2022/01/13 11:04:37;;;;;;;104.00;39.70;;;2.60;99.90;;;;;;4995948;28;20205;-78
2022/01/13 11:07:16;;;;;;;86.67;37.27;;;2.70;99.90;;;;;;4995945;28;20666;-78
2022/01/13 11:09:43;;;;;;;92.97;36.40;;;2.80;99.90;;;;;;4978521;28;20647;-78
2022/01/13 11:12:11;;;;;;;86.30;37.43;;;2.80;99.90;;;;;;4995781;28;20260;-78
2022/01/13 11:14:42;;;;;;;92.07;37.77;;;2.80;99.90;;;;;;4995905;28;20194;-78
2022/01/13 11:17:10;;;;;;;82.87;34.07;;;2.80;99.90;;;;;;4978013;28;20193;-78
2022/01/13 11:19:36;;;;;;;77.17;33.10;;;2.70;99.90;;;;;;4999731;28;20666;-78
2022/01/13 11:22:02;;;;;;;73.83;33.00;;;2.80;99.90;;;;;;4982820;28;20213;-78
2022/01/13 11:24:28;;;;;;;69.50;30.53;;;2.80;99.90;;;;;;4997283;28;20293;-78
2022/01/13 11:26:55;;;;;;;70.43;31.33;;;2.80;99.90;;;;;;4978619;28;20185;-77
2022/01/13 11:29:23;;;;;;;68.33;30.67;;;2.80;99.90;;;;;;4979142;28;20597;-77
2022/01/13 11:31:50;;;;;;;66.80;29.97;;;2.80;99.90;;;;;;4978771;28;20624;-78
2022/01/13 11:34:17;;;;;;;59.60;28.20;;;2.90;99.90;;;;;;4978955;28;20190;-79
2022/01/13 11:36:43;;;;;;;71.80;29.83;;;2.80;99.90;;;;;;4996052;28;20209;-78
2022/01/13 11:39:10;;;;;;;63.73;28.87;;;2.80;99.90;;;;;;4996165;28;20603;-78
2022/01/13 11:42:00;;;;;;;67.37;30.07;;;2.80;99.90;;;;;;4996083;28;20197;-78
2022/01/13 11:44:26;;;;;;;76.03;29.63;;;2.90;99.90;;;;;;4980066;28;20213;-78
2022/01/13 11:46:51;;;;;;;71.10;29.63;;;2.90;99.90;;;;;;4997692;28;20232;-78
2022/01/13 11:49:25;;;;;;;70.07;30.93;;;3.00;99.90;;;;;;4979706;28;20231;-78
2022/01/13 11:51:57;;;;;;;71.73;32.67;;;3.00;99.90;;;;;;4996848;28;20194;-78
2022/01/13 11:54:35;;;;;;;63.27;29.90;;;3.10;99.90;;;;;;4996998;28;20184;-76
2022/01/13 11:57:16;;;;;;;64.60;31.83;;;3.10;99.90;;;;;;4979685;28;20222;-78
2022/01/13 11:59:56;;;;;;;66.80;30.67;;;3.10;99.90;;;;;;4998319;28;20188;-77
2022/01/13 12:02:33;;;;;;;63.93;31.53;;;3.20;99.90;;;;;;5053501;23;20238;-78
2022/01/13 12:04:59;;;;;;;63.27;29.53;;;3.20;99.90;;;;;;5039131;28;20680;-75
2022/01/13 12:07:38;;;;;;;74.17;33.10;;;3.10;99.90;;;;;;5039016;28;20176;-77
2022/01/13 12:10:06;;;;;;;66.17;30.83;;;3.00;99.90;;;;;;5038259;28;20159;-78
2022/01/13 12:12:34;;;;;;;59.80;29.77;;;3.10;99.90;;;;;;5037266;28;20196;-77
2022/01/13 12:15:26;;;;;;;63.53;28.90;;;3.20;99.90;;;;;;5036840;28;20677;-75
2022/01/13 12:18:00;;;;;;;61.30;29.47;;;3.20;99.90;;;;;;5010389;28;20191;-75
2022/01/13 12:20:50;;;;;;;56.07;27.03;;;3.30;99.90;;;;;;5018841;28;20267;-75
2022/01/13 12:23:42;;;;;;;51.30;25.93;;;3.30;99.90;;;;;;5036505;28;20251;-75
2022/01/13 12:26:42;;;;;;;54.63;25.97;;;3.20;99.90;;;;;;5037098;28;20184;-77
2022/01/13 12:29:14;;;;;;;61.40;27.97;;;3.20;99.90;;;;;;5036579;28;20180;-77
2022/01/13 12:32:04;;;;;;;56.07;28.23;;;3.30;99.90;;;;;;5018564;28;20208;-75
2022/01/13 12:34:33;;;;;;;56.20;26.43;;;3.40;99.90;;;;;;5036475;28;20180;-75
2022/01/13 12:37:13;;;;;;;52.93;25.97;;;3.40;99.90;;;;;;5036197;28;20181;-75
2022/01/13 12:40:08;;;;;;;53.07;25.53;;;3.40;99.90;;;;;;5018472;28;20716;-75
2022/01/13 12:42:41;;;;;;;50.97;26.40;;;3.40;99.90;;;;;;5018379;28;20204;-75
2022/01/13 12:47:54;;;;;;;55.63;29.23;;;3.40;99.90;;;;;;5036773;28;20211;-74
2022/01/13 12:50:33;;;;;;;57.97;27.77;;;3.40;99.90;;;;;;5018262;28;20267;-75
2022/01/13 12:53:06;;;;;;;61.73;30.33;;;3.50;99.90;;;;;;5018152;28;20207;-75
2022/01/13 12:55:32;;;;;;;67.93;31.90;;;3.50;99.90;;;;;;5035962;28;20721;-74
2022/01/13 12:57:58;;;;;;;59.67;31.53;;;3.50;99.90;;;;;;5018055;28;20279;-76
2022/01/13 13:00:25;;;;;;;70.97;31.80;;;3.50;99.90;;;;;;5018105;28;20184;-77